Time;durP1;ratioP1;P1;durP2;ratioP2;P2;SDS_P1;SDS_P2;PMS_P1;PMS_P2;Temp;Humidity;BMP_temperature;BMP_pressure;BME280_temperature;BME280_humidity;BME280_pressure;Samples;Min_cycle;Max_cycle;Signal;HPM_P1;HPM_P2
2021/10/09 00:02:05;;;;;;;75.07;37.10;;;;;;;7.58;100.00;102836.31;5221652;28;20244;-74
2021/10/09 00:04:35;;;;;;;68.07;34.67;;;;;;;7.56;100.00;102840.03;5221373;28;20032;-74
2021/10/09 00:07:06;;;;;;;87.03;38.63;;;;;;;7.52;100.00;102836.69;5221945;28;20025;-74
2021/10/09 00:09:36;;;;;;;84.88;39.95;;;;;;;7.49;100.00;102831.56;5221330;28;20474;-74
2021/10/09 00:12:07;;;;;;;82.50;41.20;;;;;;;7.47;100.00;102833.44;5221681;28;20482;-74
2021/10/09 00:14:37;;;;;;;76.55;38.22;;;;;;;7.44;100.00;102837.19;5221405;28;20033;-73
2021/10/09 00:17:09;;;;;;;74.32;36.83;;;;;;;7.41;100.00;102832.03;5221797;28;20021;-74
2021/10/09 00:19:39;;;;;;;81.32;39.58;;;;;;;7.40;100.00;102832.13;5221807;28;20462;-74
2021/10/09 00:22:10;;;;;;;89.38;44.45;;;;;;;7.40;100.00;102827.66;5221870;28;20092;-74
2021/10/09 00:24:40;;;;;;;83.13;41.40;;;;;;;7.40;100.00;102835.66;5221181;28;20028;-76
2021/10/09 00:27:11;;;;;;;94.97;44.38;;;;;;;7.41;100.00;102837.38;5221476;28;20036;-75
2021/10/09 00:29:42;;;;;;;110.13;48.63;;;;;;;7.42;100.00;102831.06;5220950;28;20471;-75
2021/10/09 00:32:12;;;;;;;115.28;49.50;;;;;;;7.44;100.00;102831.84;5221590;28;20084;-75
2021/10/09 00:34:43;;;;;;;111.15;51.05;;;;;;;7.46;100.00;102829.06;5221385;28;20113;-75
2021/10/09 00:37:13;;;;;;;113.57;51.33;;;;;;;7.46;100.00;102834.41;5221166;28;20098;-74
2021/10/09 00:39:44;;;;;;;114.40;50.40;;;;;;;7.46;100.00;102840.59;5222921;28;20112;-74
2021/10/09 00:42:14;;;;;;;96.28;45.83;;;;;;;7.45;100.00;102830.03;5225231;28;20029;-74
2021/10/09 00:44:45;;;;;;;98.95;43.95;;;;;;;7.43;100.00;102827.47;5225011;28;20512;-74
2021/10/09 00:47:15;;;;;;;98.20;43.45;;;;;;;7.41;100.00;102825.81;5224775;28;20031;-74
2021/10/09 00:49:46;;;;;;;114.55;48.95;;;;;;;7.39;100.00;102830.41;5224653;28;20017;-74
2021/10/09 00:52:17;;;;;;;108.32;48.05;;;;;;;7.38;100.00;102823.34;5225047;28;20068;-75
2021/10/09 00:54:48;;;;;;;104.03;47.90;;;;;;;7.37;100.00;102827.81;5224205;28;20435;-74
2021/10/09 00:57:21;;;;;;;102.13;47.70;;;;;;;7.36;100.00;102830.59;5224937;28;20104;-74
2021/10/09 00:59:54;;;;;;;104.88;47.83;;;;;;;7.33;100.00;102818.31;5224307;28;20044;-73
2021/10/09 01:02:25;;;;;;;99.85;47.45;;;;;;;7.31;100.00;102817.53;5225241;28;20051;-75
2021/10/09 01:04:58;;;;;;;109.53;49.70;;;;;;;7.30;100.00;102817.66;5225729;28;20017;-74
2021/10/09 01:07:28;;;;;;;109.50;51.28;;;;;;;7.28;100.00;102817.75;5224758;28;20108;-74
2021/10/09 01:10:00;;;;;;;114.18;51.45;;;;;;;7.29;100.00;102814.13;5225054;28;20162;-74
2021/10/09 01:12:30;;;;;;;115.20;48.50;;;;;;;7.30;100.00;102818.50;5225165;28;20056;-74
2021/10/09 01:15:18;;;;;;;109.35;48.38;;;;;;;7.29;100.00;102815.94;5224970;28;20024;-75
2021/10/09 01:17:48;;;;;;;107.28;49.03;;;;;;;7.27;100.00;102806.19;5223094;28;20028;-74
2021/10/09 01:20:19;;;;;;;124.40;50.05;;;;;;;7.28;100.00;102817.75;5224397;28;20067;-74
2021/10/09 01:22:50;;;;;;;119.78;51.10;;;;;;;7.28;100.00;102812.41;5224704;28;20033;-74
2021/10/09 01:25:21;;;;;;;95.38;45.03;;;;;;;7.31;100.00;102814.00;5224524;28;20025;-74
2021/10/09 01:27:51;;;;;;;127.82;52.97;;;;;;;7.32;100.00;102807.72;5224310;28;20390;-75
2021/10/09 01:30:22;;;;;;;127.25;53.88;;;;;;;7.31;100.00;102806.84;5223745;28;20074;-75
2021/10/09 01:32:52;;;;;;;149.48;60.15;;;;;;;7.39;100.00;102804.56;5224297;28;20048;-75
2021/10/09 01:35:23;;;;;;;149.40;62.53;;;;;;;7.48;100.00;102805.78;5224336;28;20187;-75
2021/10/09 01:37:54;;;;;;;146.60;55.92;;;;;;;7.49;100.00;102797.69;5224274;28;20033;-75
2021/10/09 01:40:25;;;;;;;148.02;59.15;;;;;;;7.52;100.00;102805.47;5223845;28;20453;-75
2021/10/09 01:43:02;;;;;;;159.02;60.47;;;;;;;7.55;100.00;102804.44;5224089;28;20390;-76
2021/10/09 01:45:33;;;;;;;140.75;61.50;;;;;;;7.58;100.00;102798.91;5224040;28;20029;-75
2021/10/09 01:48:08;;;;;;;131.23;55.25;;;;;;;7.59;100.00;102797.09;5224261;28;20017;-74
2021/10/09 01:50:39;;;;;;;142.27;55.92;;;;;;;7.56;100.00;102798.13;5221508;28;20032;-75
2021/10/09 01:53:11;;;;;;;139.80;56.30;;;;;;;7.52;100.00;102783.25;5223920;28;20025;-75
2021/10/09 01:55:42;;;;;;;132.55;56.38;;;;;;;7.51;100.00;102789.56;5224071;28;20032;-74
2021/10/09 01:58:13;;;;;;;138.00;54.72;;;;;;;7.48;100.00;102789.75;5222865;28;20032;-74
2021/10/09 02:00:43;;;;;;;129.90;55.97;;;;;;;7.48;100.00;102784.41;5223805;28;20025;-75
2021/10/09 02:03:17;;;;;;;158.25;62.90;;;;;;;7.50;100.00;102785.19;5223900;28;20024;-75
2021/10/09 02:05:48;;;;;;;155.32;62.00;;;;;;;7.57;100.00;102788.31;5223435;28;20029;-76
2021/10/09 02:08:19;;;;;;;164.52;62.20;;;;;;;7.60;100.00;102783.63;5223562;28;20479;-74
2021/10/09 02:10:58;;;;;;;153.43;60.35;;;;;;;7.60;100.00;102780.09;5223634;28;20020;-75
2021/10/09 02:18:43;;;;;;;160.52;63.67;;;;;;;7.61;100.00;102771.13;5223239;28;20089;-75
2021/10/09 02:24:23;;;;;;;172.63;65.22;;;;;;;7.65;100.00;102784.19;5223338;28;20166;-74
2021/10/09 02:26:54;;;;;;;166.95;66.72;;;;;;;7.66;100.00;102777.03;5223508;28;20036;-74
2021/10/09 02:29:24;;;;;;;169.82;68.07;;;;;;;7.66;100.00;102782.38;5222997;28;20043;-74
2021/10/09 02:31:57;;;;;;;178.10;68.38;;;;;;;7.70;100.00;102775.88;5223425;28;20371;-75
2021/10/09 02:34:27;;;;;;;180.38;65.90;;;;;;;7.70;100.00;102773.22;5222736;28;20111;-74
2021/10/09 02:36:58;;;;;;;169.77;65.63;;;;;;;7.70;100.00;102775.88;5221226;28;20127;-74
2021/10/09 02:39:28;;;;;;;179.20;68.80;;;;;;;7.67;100.00;102782.25;5222830;28;20025;-74
2021/10/09 02:41:59;;;;;;;175.75;67.30;;;;;;;7.67;100.00;102774.25;5223080;28;20727;-75
2021/10/09 02:44:29;;;;;;;170.65;64.35;;;;;;;7.66;100.00;102774.34;5223127;28;20060;-75
2021/10/09 02:47:00;;;;;;;182.38;67.53;;;;;;;7.71;100.00;102786.44;5222751;28;20032;-74
2021/10/09 02:49:30;;;;;;;166.23;63.55;;;;;;;7.71;100.00;102781.13;5222231;28;20048;-74
2021/10/09 02:52:01;;;;;;;154.57;61.10;;;;;;;7.66;100.00;102774.34;5223095;28;20061;-74
2021/10/09 02:54:31;;;;;;;162.00;63.40;;;;;;;7.58;100.00;102768.66;5221263;28;20056;-75
2021/10/09 02:57:02;;;;;;;185.90;67.38;;;;;;;7.58;100.00;102777.53;5222332;28;20360;-74
2021/10/09 02:59:32;;;;;;;189.95;70.70;;;;;;;7.63;100.00;102777.22;5222792;28;20075;-75
2021/10/09 03:02:03;;;;;;;184.05;72.97;;;;;;;7.64;100.00;102768.28;5222241;28;20056;-75
2021/10/09 03:04:33;;;;;;;177.50;67.78;;;;;;;7.60;100.00;102770.28;5222350;28;20184;-74
2021/10/09 03:07:04;;;;;;;177.55;68.38;;;;;;;7.58;100.00;102777.53;5222137;28;20108;-73
2021/10/09 03:09:34;;;;;;;175.75;66.53;;;;;;;7.55;100.00;102782.22;5222125;28;20033;-74
2021/10/09 03:12:05;;;;;;;173.07;66.85;;;;;;;7.50;100.00;102775.34;5222359;28;20020;-73
2021/10/09 03:14:35;;;;;;;183.23;69.20;;;;;;;7.47;100.00;102777.34;5220772;28;20037;-73
2021/10/09 03:17:06;;;;;;;175.85;66.18;;;;;;;7.46;100.00;102778.31;5221923;28;20108;-73
2021/10/09 03:19:36;;;;;;;181.95;64.70;;;;;;;7.43;100.00;102778.50;5222323;28;20061;-75
2021/10/09 03:22:07;;;;;;;183.07;68.25;;;;;;;7.43;100.00;102773.16;5222404;28;20035;-74
2021/10/09 03:24:38;;;;;;;179.95;67.95;;;;;;;7.41;100.00;102769.75;5222134;28;20083;-74
2021/10/09 03:27:08;;;;;;;183.40;68.35;;;;;;;7.40;100.00;102776.06;5222043;28;20112;-74
2021/10/09 03:29:39;;;;;;;189.10;67.05;;;;;;;7.37;100.00;102773.56;5222193;28;20025;-74
2021/10/09 03:32:09;;;;;;;197.73;70.93;;;;;;;7.37;100.00;102774.41;5222262;28;20183;-73
2021/10/09 03:34:40;;;;;;;205.82;74.28;;;;;;;7.39;100.00;102769.00;5222026;28;20082;-76
2021/10/09 03:37:11;;;;;;;202.48;73.70;;;;;;;7.38;100.00;102776.16;5221455;28;20024;-75
2021/10/09 03:39:44;;;;;;;202.13;72.95;;;;;;;7.38;100.00;102769.94;5220611;28;20476;-75
2021/10/09 03:42:21;;;;;;;188.52;72.00;;;;;;;7.37;100.00;102768.22;5221678;28;20119;-74
2021/10/09 03:44:56;;;;;;;174.07;64.30;;;;;;;7.34;100.00;102773.78;5222069;28;20040;-74
2021/10/09 03:47:44;;;;;;;157.85;60.67;;;;;;;7.26;100.00;102768.91;5222132;28;20033;-75
2021/10/09 03:52:21;;;;;;;155.50;59.72;;;;;;;7.19;100.00;102772.94;5221481;28;20029;-75
2021/10/09 03:53:12;;;;;;;162.50;63.30;;;;;;;7.12;100.00;102774.28;5221525;28;20033;-74
2021/10/09 03:55:42;;;;;;;168.65;63.92;;;;;;;7.09;100.00;102777.16;5221844;28;20052;-75
2021/10/09 03:58:13;;;;;;;180.88;64.70;;;;;;;7.04;100.00;102772.09;5221186;28;20029;-75
2021/10/09 04:00:43;;;;;;;201.10;70.93;;;;;;;7.01;100.00;102773.13;5221348;28;20088;-75
2021/10/09 04:03:14;;;;;;;187.98;68.15;;;;;;;7.03;100.00;102769.50;5221575;28;20071;-75
2021/10/09 04:05:44;;;;;;;226.02;72.38;;;;;;;7.04;100.00;102771.25;5221557;28;20028;-75
2021/10/09 04:08:15;;;;;;;207.23;72.22;;;;;;;7.02;100.00;102771.31;5221621;28;20060;-75
2021/10/09 04:10:46;;;;;;;212.45;75.10;;;;;;;7.01;100.00;102775.81;5221360;28;20426;-75
2021/10/09 04:13:16;;;;;;;204.32;70.75;;;;;;;7.00;100.00;102775.91;5221853;28;20108;-76
2021/10/09 04:15:46;;;;;;;199.70;71.18;;;;;;;6.99;100.00;102782.22;5225581;28;20378;-76
2021/10/09 04:18:17;;;;;;;200.20;67.13;;;;;;;6.97;100.00;102770.75;5225907;28;20468;-75
2021/10/09 04:20:47;;;;;;;186.45;68.20;;;;;;;6.95;100.00;102778.88;5225669;28;20029;-75
2021/10/09 04:23:18;;;;;;;198.57;68.35;;;;;;;6.90;100.00;102785.44;5224288;28;20037;-74
2021/10/09 04:25:48;;;;;;;179.57;63.10;;;;;;;6.85;100.00;102777.72;5225271;28;20108;-75
2021/10/09 04:28:19;;;;;;;189.45;67.07;;;;;;;6.82;100.00;102780.56;5225570;28;20036;-76
2021/10/09 04:30:49;;;;;;;199.40;68.53;;;;;;;6.80;100.00;102784.28;5225439;28;20021;-75
2021/10/09 04:33:20;;;;;;;202.70;69.40;;;;;;;6.79;100.00;102778.09;5225301;28;20482;-75
2021/10/09 04:35:50;;;;;;;203.20;68.38;;;;;;;6.79;100.00;102786.09;5225309;28;20431;-74
2021/10/09 04:38:21;;;;;;;217.30;74.18;;;;;;;6.79;100.00;102787.94;5225223;28;20029;-75
2021/10/09 04:40:51;;;;;;;237.43;75.32;;;;;;;6.79;100.00;102793.25;5224747;28;20025;-75
2021/10/09 04:43:22;;;;;;;245.88;78.25;;;;;;;6.82;100.00;102793.03;5225196;28;20104;-75
2021/10/09 04:45:52;;;;;;;237.50;78.35;;;;;;;6.84;100.00;102794.69;5225095;28;20032;-76
2021/10/09 04:48:23;;;;;;;216.52;71.30;;;;;;;6.83;100.00;102781.41;5225576;28;20029;-74
2021/10/09 04:50:53;;;;;;;190.88;68.50;;;;;;;6.81;100.00;102786.84;5224976;28;20501;-74
2021/10/09 04:53:24;;;;;;;198.55;72.78;;;;;;;6.80;100.00;102794.97;5224932;28;20048;-74
2021/10/09 04:55:54;;;;;;;207.60;69.40;;;;;;;6.77;100.00;102789.81;5240589;28;20101;-74
2021/10/09 04:58:25;;;;;;;232.13;74.97;;;;;;;6.76;100.00;102791.63;5224666;28;20033;-74
2021/10/09 05:00:55;;;;;;;223.90;74.10;;;;;;;6.75;100.00;102789.91;5224672;28;20023;-74
2021/10/09 05:03:26;;;;;;;222.70;74.00;;;;;;;6.76;100.00;102788.94;5224795;28;20029;-74
2021/10/09 05:05:56;;;;;;;223.13;74.90;;;;;;;6.74;100.00;102790.88;5224921;28;20059;-74
2021/10/09 05:08:27;;;;;;;227.48;77.75;;;;;;;6.73;100.00;102794.50;5224633;28;20391;-75
2021/10/09 05:10:58;;;;;;;251.10;78.13;;;;;;;6.72;100.00;102787.41;5224249;28;20032;-76
2021/10/09 05:13:29;;;;;;;232.27;76.05;;;;;;;6.71;100.00;102791.03;5224849;28;20040;-75
2021/10/09 05:15:59;;;;;;;219.23;75.53;;;;;;;6.66;100.00;102788.66;5224414;28;20385;-74
2021/10/09 05:18:30;;;;;;;233.15;75.15;;;;;;;6.67;100.00;102789.50;5224512;28;20035;-73
2021/10/09 05:21:00;;;;;;;240.05;79.05;;;;;;;6.65;100.00;102794.09;5224622;28;20032;-74
2021/10/09 05:23:32;;;;;;;214.85;71.05;;;;;;;6.61;100.00;102787.22;5224380;28;20049;-74
2021/10/09 05:26:04;;;;;;;215.45;72.80;;;;;;;6.57;100.00;102797.22;5224349;28;20096;-74
2021/10/09 05:28:44;;;;;;;220.93;70.70;;;;;;;6.51;100.00;102796.72;5224290;28;20032;-75
2021/10/09 05:31:29;;;;;;;197.15;70.38;;;;;;;6.44;100.00;102794.44;5224119;28;20016;-75
2021/10/09 05:33:59;;;;;;;210.73;68.13;;;;;;;6.39;100.00;102790.34;5224468;28;20021;-76
2021/10/09 05:36:30;;;;;;;196.85;63.53;;;;;;;6.33;100.00;102796.03;5224040;28;20036;-75
2021/10/09 05:39:00;;;;;;;157.43;56.78;;;;;;;6.28;100.00;102795.47;5224130;28;20044;-76
2021/10/09 05:41:31;;;;;;;174.85;58.47;;;;;;;6.21;100.00;102795.78;5224393;28;20234;-75
2021/10/09 05:44:02;;;;;;;180.02;62.20;;;;;;;6.16;100.00;102797.00;5224720;28;20075;-75
2021/10/09 05:46:34;;;;;;;187.88;64.60;;;;;;;6.12;100.00;102800.81;5223795;28;20028;-75
2021/10/09 05:49:04;;;;;;;211.45;66.20;;;;;;;6.10;100.00;102806.22;5223637;28;20433;-74
2021/10/09 05:51:40;;;;;;;227.13;65.07;;;;;;;6.07;100.00;102808.22;5216771;28;20025;-75
2021/10/09 05:54:16;;;;;;;195.00;64.47;;;;;;;6.01;100.00;102801.44;5217863;28;20403;-74
2021/10/09 05:56:56;;;;;;;169.13;60.00;;;;;;;5.97;100.00;102806.09;5219973;28;20122;-74
2021/10/09 06:00:02;;;;;;;507.80;72.68;;;;;;;5.93;100.00;102804.56;5220856;28;20043;-74
2021/10/09 06:25:46;;;;;;;219.65;45.30;;;;;;;5.66;100.00;102833.56;5221355;28;20029;-75
2021/10/09 06:42:17;;;;;;;98.25;40.42;;;;;;;5.88;100.00;102835.91;5220540;28;20052;-74
2021/10/09 06:47:24;;;;;;;241.68;42.10;;;;;;;6.05;100.00;102847.41;5220304;28;20115;-75
2021/10/09 06:50:15;;;;;;;128.40;38.83;;;;;;;6.21;100.00;102849.09;5220081;28;20031;-74
2021/10/09 07:01:12;;;;;;;38.10;23.60;;;;;;;7.52;100.00;102856.22;5219610;28;20028;-74
2021/10/09 07:03:42;;;;;;;37.28;21.80;;;;;;;7.97;100.00;102853.38;5219074;28;20025;-74
2021/10/09 07:06:17;;;;;;;37.38;21.95;;;;;;;8.45;100.00;102851.09;5218985;28;20126;-75
2021/10/09 07:08:47;;;;;;;32.28;19.67;;;;;;;8.85;100.00;102851.91;5219340;28;20100;-75
2021/10/09 07:11:18;;;;;;;30.95;20.45;;;;;;;9.11;100.00;102857.28;5220049;28;20027;-76
2021/10/09 07:13:48;;;;;;;61.17;32.08;;;;;;;9.45;100.00;102850.38;5219173;28;20036;-75
2021/10/09 07:16:19;;;;;;;65.63;32.95;;;;;;;9.72;100.00;102853.72;5220269;28;20107;-74
2021/10/09 07:18:49;;;;;;;61.60;34.13;;;;;;;9.99;100.00;102850.88;5219954;28;20025;-75
2021/10/09 07:21:20;;;;;;;58.13;32.15;;;;;;;10.35;100.00;102868.75;5218464;28;20041;-74
2021/10/09 07:23:50;;;;;;;60.60;33.50;;;;;;;10.66;100.00;102866.41;5218688;28;20017;-75
2021/10/09 07:26:21;;;;;;;60.22;32.88;;;;;;;10.87;100.00;102861.19;5219134;28;20536;-76
2021/10/09 07:28:51;;;;;;;55.45;30.80;;;;;;;11.15;100.00;102866.13;5219102;28;20036;-75
2021/10/09 07:31:22;;;;;;;52.78;31.50;;;;;;;11.43;100.00;102876.50;5202026;28;20074;-76
2021/10/09 07:33:52;;;;;;;58.30;32.53;;;;;;;11.71;100.00;102873.31;5219215;28;20024;-77
2021/10/09 07:36:23;;;;;;;57.83;31.83;;;;;;;11.92;100.00;102873.44;5219609;28;20024;-74
2021/10/09 07:38:55;;;;;;;51.13;31.45;;;;;;;12.13;100.00;102870.81;5218503;28;20127;-74
2021/10/09 07:41:25;;;;;;;54.85;33.05;;;;;;;12.42;100.00;102868.38;5219315;28;20100;-74
2021/10/09 07:43:55;;;;;;;51.17;30.17;;;;;;;12.66;100.00;102874.38;5219455;28;20120;-74
2021/10/09 07:46:26;;;;;;;55.55;32.00;;;;;;;12.75;100.00;102869.16;5219705;28;20028;-74
2021/10/09 07:48:57;;;;;;;58.00;30.58;;;;;;;12.79;100.00;102879.56;5217388;28;20501;-74
2021/10/09 07:51:27;;;;;;;53.08;30.05;;;;;;;12.92;100.00;102882.06;5223269;28;20036;-73
2021/10/09 07:54:00;;;;;;;56.90;31.58;;;;;;;13.11;100.00;102875.94;5223194;28;20082;-74
2021/10/09 07:56:31;;;;;;;53.85;31.15;;;;;;;13.24;100.00;102876.59;5223416;28;20031;-75
2021/10/09 07:59:03;;;;;;;54.80;30.33;;;;;;;13.33;100.00;102867.69;5222145;28;20390;-74
2021/10/09 08:01:34;;;;;;;55.55;29.92;;;;;;;13.55;100.00;102880.13;5222132;28;20116;-74
2021/10/09 08:04:05;;;;;;;54.28;30.40;;;;;;;13.62;100.00;102880.44;5223795;28;20155;-74
2021/10/09 08:06:35;;;;;;;50.67;29.92;;;;;;;13.84;100.00;102876.66;5222282;28;20025;-73
2021/10/09 08:09:06;;;;;;;54.67;30.80;;;;;;;14.04;100.00;102877.56;5223006;28;20120;-73
2021/10/09 08:11:37;;;;;;;56.13;29.52;;;;;;;14.24;100.00;102876.59;5223384;28;20563;-73
2021/10/09 08:14:07;;;;;;;46.60;28.25;;;;;;;14.27;100.00;102880.88;5223534;28;20184;-73
2021/10/09 08:16:38;;;;;;;52.42;31.15;;;;;;;14.45;100.00;102882.69;5222271;28;20418;-73
2021/10/09 08:19:09;;;;;;;51.67;30.13;;;;;;;14.53;100.00;102884.72;5222159;28;20040;-73
2021/10/09 08:21:42;;;;;;;54.33;31.25;;;;;;;14.66;100.00;102884.41;5223127;28;20115;-73
2021/10/09 08:24:29;;;;;;;51.90;30.42;;;;;;;14.78;100.00;102888.69;5222985;28;20028;-73
2021/10/09 08:40:45;;;;;;;48.03;29.45;;;;;;;15.65;100.00;102879.47;5222680;28;20390;-74
2021/10/09 08:43:16;;;;;;;60.60;31.92;;;;;;;15.78;100.00;102894.34;5223354;28;20213;-74
2021/10/09 08:45:46;;;;;;;54.03;31.20;;;;;;;15.82;100.00;102889.50;5223077;28;20235;-75
2021/10/09 08:48:17;;;;;;;59.67;30.75;;;;;;;15.73;100.00;102891.25;5223088;28;20070;-75
2021/10/09 08:50:48;;;;;;;55.35;29.98;;;;;;;15.56;100.00;102892.00;5222162;28;20522;-73
2021/10/09 08:53:19;;;;;;;53.08;30.45;;;;;;;15.65;100.00;102903.81;5222584;28;20301;-73
2021/10/09 08:55:50;;;;;;;49.03;30.52;;;;;;;15.77;100.00;102894.50;5222529;28;20414;-73
2021/10/09 08:58:30;;;;;;;52.55;30.70;;;;;;;16.00;100.00;102886.81;5221461;28;20025;-74
2021/10/09 09:01:16;;;;;;;53.58;29.92;;;;;;;16.24;100.00;102888.94;5220926;28;20032;-74
2021/10/09 09:04:13;;;;;;;49.30;29.48;;;;;;;16.37;100.00;102894.81;5222687;28;20040;-73
2021/10/09 09:40:10;;;;;;;54.75;29.75;;;;;;;16.97;100.00;102892.31;5221300;28;20135;-75
2021/10/09 09:42:43;;;;;;;50.95;28.85;;;;;;;17.05;100.00;102891.50;5214631;28;20029;-74
2021/10/09 09:45:24;;;;;;;53.70;29.52;;;;;;;17.22;100.00;102878.88;5216171;28;20025;-74
2021/10/09 09:47:57;;;;;;;51.03;29.15;;;;;;;17.24;100.00;102883.13;5222467;28;20544;-74
2021/10/09 09:50:28;;;;;;;50.03;28.83;;;;;;;17.13;100.00;102880.72;5220651;28;20123;-74
2021/10/09 09:53:00;;;;;;;45.83;26.90;;;;;;;17.04;100.00;102884.38;5221784;28;20071;-74
2021/10/09 09:55:31;;;;;;;53.55;28.52;;;;;;;17.20;100.00;102870.06;5221951;28;20025;-74
2021/10/09 09:58:02;;;;;;;47.30;28.63;;;;;;;17.20;100.00;102878.19;5221922;28;20025;-74
2021/10/09 10:00:34;;;;;;;55.63;28.55;;;;;;;17.11;100.00;102882.72;5220216;28;20055;-74
2021/10/09 10:03:05;;;;;;;47.60;27.58;;;;;;;17.18;100.00;102878.38;5221243;28;20090;-75
2021/10/09 10:05:36;;;;;;;51.10;28.17;;;;;;;17.00;100.00;102875.69;5221383;28;20245;-74
2021/10/09 10:08:10;;;;;;;49.97;27.63;;;;;;;17.02;100.00;102878.28;5221758;28;20033;-74
2021/10/09 10:10:41;;;;;;;52.33;29.15;;;;;;;16.92;100.00;102872.94;5220924;28;20025;-74
2021/10/09 10:13:12;;;;;;;46.03;27.27;;;;;;;17.09;100.00;102869.31;5220339;28;20083;-74
2021/10/09 10:15:43;;;;;;;49.05;27.63;;;;;;;17.02;100.00;102872.84;5221721;28;20028;-74
2021/10/09 10:18:44;;;;;;;49.20;27.73;;;;;;;16.83;100.00;102871.19;5221060;28;20025;-74
2021/10/09 10:21:18;;;;;;;49.30;28.40;;;;;;;16.99;100.00;102871.28;5220580;28;20032;-74
2021/10/09 10:23:48;;;;;;;48.17;29.33;;;;;;;17.18;100.00;102864.81;5219875;28;20036;-74
2021/10/09 10:26:20;;;;;;;53.05;28.10;;;;;;;17.27;100.00;102871.09;5220816;28;20386;-74
2021/10/09 10:28:51;;;;;;;52.53;27.50;;;;;;;17.29;100.00;102864.53;5220484;28;20393;-74
2021/10/09 10:31:23;;;;;;;50.33;28.05;;;;;;;17.26;100.00;102866.69;5220922;28;20026;-75
2021/10/09 10:34:18;;;;;;;51.58;27.23;;;;;;;17.08;100.00;102877.63;5220167;28;20107;-74
2021/10/09 10:36:50;;;;;;;50.38;27.92;;;;;;;17.03;100.00;102871.84;5221300;28;20466;-74
2021/10/09 10:39:36;;;;;;;52.05;28.40;;;;;;;17.13;100.00;102871.72;5220319;28;20032;-74
2021/10/09 10:42:26;;;;;;;50.60;27.98;;;;;;;17.25;100.00;102862.28;5220747;28;20074;-74
2021/10/09 10:45:04;;;;;;;46.15;25.75;;;;;;;17.23;100.00;102864.31;5220743;28;20418;-74
2021/10/09 10:47:50;;;;;;;49.75;27.02;;;;;;;17.43;100.00;102864.94;5220951;28;20017;-74
2021/10/09 10:51:00;;;;;;;47.85;26.55;;;;;;;17.46;100.00;102867.31;5220093;28;20039;-75
2021/10/09 10:54:04;;;;;;;49.60;25.67;;;;;;;17.53;100.00;102863.78;5221268;28;20025;-74
2021/10/09 10:56:36;;;;;;;40.15;24.08;;;;;;;17.48;100.00;102865.28;5221484;28;20033;-75
2021/10/09 10:59:31;;;;;;;45.05;25.10;;;;;;;17.50;100.00;102866.81;5219910;28;20076;-75
2021/10/09 11:02:10;;;;;;;42.13;23.25;;;;;;;17.69;100.00;102865.72;5220145;28;20482;-75
2021/10/09 11:04:42;;;;;;;43.75;25.33;;;;;;;17.69;100.00;102859.44;5220839;28;20061;-75
2021/10/09 11:07:14;;;;;;;46.00;24.85;;;;;;;17.86;100.00;102859.34;5223477;28;20087;-74
2021/10/09 11:09:45;;;;;;;46.85;25.65;;;;;;;17.89;100.00;102862.75;5224024;28;20029;-75
2021/10/09 11:12:26;;;;;;;45.67;23.50;;;;;;;17.93;100.00;102855.97;5219142;28;20437;-75
2021/10/09 11:15:04;;;;;;;41.65;22.52;;;;;;;17.91;100.00;102861.56;5220081;28;20059;-75
2021/10/09 11:17:38;;;;;;;45.45;23.35;;;;;;;17.87;100.00;102857.47;5219800;28;20024;-75
2021/10/09 11:20:11;;;;;;;42.95;23.40;;;;;;;17.99;100.00;102856.16;5219686;28;20033;-75
2021/10/09 11:22:48;;;;;;;44.05;23.98;;;;;;;18.04;100.00;102851.06;5219925;28;20324;-75
2021/10/09 11:25:31;;;;;;;42.00;22.63;;;;;;;18.03;100.00;102845.81;5220707;28;20115;-75
2021/10/09 11:28:06;;;;;;;43.72;22.48;;;;;;;18.07;100.00;102852.59;5220398;28;20027;-75
2021/10/09 11:30:36;;;;;;;37.00;20.10;;;;;;;18.07;100.00;102847.16;5219206;28;20031;-76
2021/10/09 11:33:07;;;;;;;35.47;19.73;;;;;;;18.10;100.00;102852.25;5219227;28;20760;-75
2021/10/09 11:35:39;;;;;;;41.20;20.85;;;;;;;18.21;100.00;102848.38;5220614;28;20055;-75
2021/10/09 11:38:21;;;;;;;38.30;20.83;;;;;;;18.29;100.00;102845.69;5220713;28;20043;-75
2021/10/09 11:40:55;;;;;;;42.33;20.67;;;;;;;18.31;100.00;102849.06;5219438;28;20024;-75
2021/10/09 11:43:44;;;;;;;35.78;19.40;;;;;;;18.40;100.00;102841.78;5221355;28;20293;-75
2021/10/09 11:46:58;;;;;;;36.65;18.90;;;;;;;18.23;100.00;102840.91;5208648;28;20433;-75
2021/10/09 11:55:15;;;;;;;35.97;19.67;;;;;;;18.43;100.00;102841.44;5219848;28;20093;-75
2021/10/09 11:57:47;;;;;;;34.13;19.65;;;;;;;18.64;100.00;102833.59;5221376;28;20021;-75
2021/10/09 12:00:28;;;;;;;30.45;19.30;;;;;;;18.63;100.00;102827.31;5218598;28;20394;-74
2021/10/09 12:03:01;;;;;;;30.25;17.48;;;;;;;18.60;100.00;102835.81;5220061;28;20029;-75
2021/10/09 12:06:00;;;;;;;39.08;17.67;;;;;;;18.70;100.00;102832.94;5221980;28;20227;-75
2021/10/09 12:08:33;;;;;;;29.65;17.35;;;;;;;18.73;100.00;102829.91;5222245;28;20436;-75
2021/10/09 12:11:14;;;;;;;35.42;17.52;;;;;;;18.74;100.00;102828.88;5218268;28;20021;-74
2021/10/09 12:13:52;;;;;;;28.30;16.02;;;;;;;18.75;100.00;102825.13;5219635;28;20090;-75
2021/10/09 12:16:30;;;;;;;30.40;15.75;;;;;;;18.91;100.00;102820.66;5218654;28;20029;-75
2021/10/09 12:19:02;;;;;;;23.92;13.93;;;;;;;19.00;100.00;102816.91;5219029;28;20032;-76
2021/10/09 12:21:36;;;;;;;27.27;15.30;;;;;;;19.07;100.00;102820.63;5217693;28;20047;-75
2021/10/09 12:24:20;;;;;;;27.90;14.52;;;;;;;18.89;100.00;102820.84;5219399;28;20483;-75
2021/10/09 12:27:07;;;;;;;24.33;14.00;;;;;;;18.89;100.00;102818.13;5251718;28;20053;-75
2021/10/09 12:30:04;;;;;;;27.15;14.50;;;;;;;19.01;100.00;102813.16;5218911;28;20021;-74
2021/10/09 12:32:43;;;;;;;24.67;13.88;;;;;;;18.93;100.00;102807.78;5217157;28;20109;-75
2021/10/09 12:35:23;;;;;;;23.33;12.75;;;;;;;19.10;100.00;102806.69;5220211;28;20379;-75
2021/10/09 12:37:58;;;;;;;26.30;13.07;;;;;;;19.09;100.00;102805.00;5223152;28;20028;-75
2021/10/09 12:40:38;;;;;;;27.15;12.73;;;;;;;19.18;100.00;102809.38;5221679;28;20043;-74
2021/10/09 12:43:12;;;;;;;23.52;13.07;;;;;;;18.88;100.00;102802.84;5222485;28;20052;-74
2021/10/09 12:45:42;;;;;;;24.25;12.93;;;;;;;19.09;100.00;102800.41;5222456;28;20086;-74
2021/10/09 12:48:17;;;;;;;23.23;12.07;;;;;;;19.07;100.00;102798.84;5222715;28;20021;-74
2021/10/09 12:50:47;;;;;;;21.07;11.83;;;;;;;19.28;100.00;102793.69;5221878;28;20115;-74
2021/10/09 12:53:18;;;;;;;21.02;12.02;;;;;;;19.17;100.00;102802.22;5222983;28;20205;-74
2021/10/09 12:55:48;;;;;;;22.33;12.68;;;;;;;19.01;100.00;102794.13;5222775;28;20025;-74
2021/10/09 12:58:19;;;;;;;26.25;11.57;;;;;;;19.03;100.00;102790.22;5222686;28;20043;-75
2021/10/09 13:00:49;;;;;;;25.52;12.40;;;;;;;19.14;100.00;102795.28;5221449;28;20174;-74
2021/10/09 13:03:20;;;;;;;25.83;11.57;;;;;;;19.24;100.00;102784.19;5222333;28;20037;-75
2021/10/09 13:05:50;;;;;;;19.45;10.52;;;;;;;19.27;100.00;102778.38;5222775;28;20074;-75
2021/10/09 13:08:21;;;;;;;22.13;10.20;;;;;;;19.14;100.00;102787.13;5220166;28;20059;-76
2021/10/09 13:10:54;;;;;;;17.50;10.18;;;;;;;19.16;93.71;102786.94;5221459;28;20083;-75
2021/10/09 13:13:24;;;;;;;20.05;10.35;;;;;;;19.02;84.87;102791.22;5222361;28;20402;-74
2021/10/09 13:15:55;;;;;;;20.23;11.63;;;;;;;19.04;93.86;102785.63;5221722;28;20039;-74
2021/10/09 13:18:25;;;;;;;25.05;12.45;;;;;;;19.01;100.00;102780.53;5221322;28;20031;-74
2021/10/09 13:20:56;;;;;;;22.13;12.25;;;;;;;18.97;100.00;102784.63;5221037;28;20040;-75